Time;durP1;ratioP1;P1;durP2;ratioP2;P2;SDS_P1;SDS_P2;PMS_P1;PMS_P2;Temp;Humidity;BMP_temperature;BMP_pressure;BME280_temperature;BME280_humidity;BME280_pressure;Samples;Min_cycle;Max_cycle;Signal;HPM_P1;HPM_P2
2022/12/10 00:01:15;;;;;;;49.05;15.52;;;;;;;0.01;0.00;59042.03;5036711;28;20707;-54
2022/12/10 00:03:42;;;;;;;41.60;12.67;;;;;;;0.01;0.00;59042.03;5037788;28;20032;-54
2022/12/10 00:06:10;;;;;;;53.92;13.98;;;;;;;0.01;0.00;59042.03;5038027;28;20280;-55
2022/12/10 00:08:36;;;;;;;51.92;13.80;;;;;;;0.01;0.00;59042.03;5037562;28;20078;-54
2022/12/10 00:11:08;;;;;;;50.30;14.60;;;;;;;0.01;0.00;59042.03;5036987;28;20113;-56
2022/12/10 00:13:35;;;;;;;45.10;13.82;;;;;;;0.01;0.00;59042.03;5037123;28;21068;-56
2022/12/10 00:16:03;;;;;;;48.80;13.73;;;;;;;0.01;0.00;59042.03;5037315;28;20040;-53
2022/12/10 00:18:28;;;;;;;52.58;14.85;;;;;;;0.01;0.00;59042.03;5037695;28;20028;-56
2022/12/10 00:20:54;;;;;;;43.85;13.80;;;;;;;0.01;0.00;59042.03;5037002;28;20048;-56
2022/12/10 00:23:19;;;;;;;47.80;13.63;;;;;;;0.01;0.00;59042.03;5037954;28;20033;-56
2022/12/10 00:25:44;;;;;;;46.53;13.10;;;;;;;0.01;0.00;59042.03;5036838;28;20051;-57
2022/12/10 00:28:10;;;;;;;52.65;15.30;;;;;;;0.01;0.00;59042.03;5037857;28;20021;-55
2022/12/10 00:30:35;;;;;;;50.08;12.57;;;;;;;0.01;0.00;59042.03;5036551;28;20036;-55
2022/12/10 00:33:01;;;;;;;47.40;13.85;;;;;;;0.01;0.00;59042.03;5037331;28;20037;-54
2022/12/10 00:35:26;;;;;;;44.08;13.75;;;;;;;0.01;0.00;59042.03;5037570;28;20045;-56
2022/12/10 00:37:52;;;;;;;49.40;13.15;;;;;;;0.01;0.00;59042.03;5037588;28;20024;-54
2022/12/10 00:40:17;;;;;;;42.30;12.60;;;;;;;0.01;0.00;59042.03;5037074;28;20526;-54
2022/12/10 00:42:42;;;;;;;47.55;12.45;;;;;;;0.01;0.00;59042.03;5037149;28;20587;-55
2022/12/10 00:45:08;;;;;;;50.47;12.82;;;;;;;0.01;0.00;59042.03;5036892;28;20079;-56
2022/12/10 00:47:33;;;;;;;41.08;12.23;;;;;;;0.01;0.00;59042.03;5037235;28;20017;-55
2022/12/10 00:49:59;;;;;;;56.70;13.25;;;;;;;0.01;0.00;59042.03;5037388;28;20020;-55
2022/12/10 00:52:24;;;;;;;39.10;10.70;;;;;;;0.01;0.00;59042.03;5036570;28;20663;-55
2022/12/10 00:54:50;;;;;;;48.33;11.68;;;;;;;0.01;0.00;59042.03;5036968;28;20418;-54
2022/12/10 00:57:15;;;;;;;43.45;11.73;;;;;;;0.01;0.00;59042.03;5036976;28;20041;-56
2022/12/10 00:59:41;;;;;;;45.70;11.60;;;;;;;0.01;0.00;59042.03;5036937;28;20028;-54
2022/12/10 01:02:06;;;;;;;49.55;12.02;;;;;;;0.01;0.00;59042.03;5036307;28;20033;-55
2022/12/10 01:04:31;;;;;;;44.80;11.20;;;;;;;0.01;0.00;59042.03;5038977;28;20226;-54
2022/12/10 01:06:59;;;;;;;45.67;12.00;;;;;;;0.01;0.00;59042.03;5040410;28;20129;-54
2022/12/10 01:09:27;;;;;;;40.33;11.75;;;;;;;0.01;0.00;59042.03;5041193;28;20036;-56
2022/12/10 01:11:53;;;;;;;47.97;11.65;;;;;;;0.01;0.00;59042.03;5040283;28;20041;-55
2022/12/10 01:14:24;;;;;;;42.50;11.32;;;;;;;0.01;0.00;59042.03;5040819;28;20040;-56
2022/12/10 01:16:57;;;;;;;45.60;12.13;;;;;;;0.01;0.00;59042.03;5040056;28;20033;-55
2022/12/10 01:19:22;;;;;;;43.40;12.45;;;;;;;0.01;0.00;59042.03;5040553;28;20036;-55
2022/12/10 01:21:52;;;;;;;46.45;12.23;;;;;;;0.01;0.00;59042.03;5039995;28;20061;-56
2022/12/10 01:24:19;;;;;;;44.60;12.35;;;;;;;0.01;0.00;59042.03;5039048;28;20440;-57
2022/12/10 01:26:44;;;;;;;53.15;13.25;;;;;;;0.01;0.00;59042.03;5040156;28;20602;-55
2022/12/10 01:29:10;;;;;;;51.95;12.95;;;;;;;0.01;0.00;59042.03;5040647;28;20081;-54
2022/12/10 01:31:37;;;;;;;42.25;11.77;;;;;;;0.01;0.00;59042.03;5039674;28;20041;-55
2022/12/10 01:34:05;;;;;;;49.42;14.10;;;;;;;0.01;0.00;59042.03;5040203;28;20043;-57
2022/12/10 01:36:57;;;;;;;55.67;14.10;;;;;;;0.01;0.00;59042.03;5039279;28;20734;-57
2022/12/10 01:39:23;;;;;;;44.40;12.93;;;;;;;0.01;0.00;59042.03;5037808;28;20055;-54
2022/12/10 01:41:48;;;;;;;51.25;15.02;;;;;;;0.01;0.00;59042.03;5039585;28;20354;-55
2022/12/10 01:44:13;;;;;;;51.70;14.10;;;;;;;0.01;0.00;59042.03;5040369;28;20473;-55
2022/12/10 01:46:42;;;;;;;56.17;14.82;;;;;;;0.01;0.00;59042.03;5039613;28;20048;-55
2022/12/10 01:49:10;;;;;;;45.35;12.57;;;;;;;0.01;0.00;59042.03;5039969;28;20021;-56
2022/12/10 01:51:38;;;;;;;50.92;14.27;;;;;;;0.01;0.00;59042.03;5038874;28;20048;-55
2022/12/10 01:54:07;;;;;;;43.03;12.18;;;;;;;0.01;0.00;59042.03;5039711;28;20028;-55
2022/12/10 01:56:38;;;;;;;48.38;13.38;;;;;;;0.01;0.00;59042.03;5039069;28;20045;-55
2022/12/10 01:59:05;;;;;;;47.13;12.75;;;;;;;0.01;0.00;59042.03;5039876;28;20726;-56
2022/12/10 02:01:36;;;;;;;43.88;11.70;;;;;;;0.01;0.00;59042.03;5038612;28;20045;-56
2022/12/10 02:04:32;;;;;;;43.70;12.60;;;;;;;0.01;0.00;59042.03;5039984;28;20021;-57
2022/12/10 02:07:10;;;;;;;35.35;8.77;;;;;;;0.01;0.00;59042.03;5038662;28;20081;-54
2022/12/10 02:09:45;;;;;;;49.25;13.55;;;;;;;0.01;0.00;59042.03;5039777;28;20020;-56
2022/12/10 02:12:39;;;;;;;48.38;12.85;;;;;;;0.01;0.00;59042.03;5039039;28;20063;-54
2022/12/10 02:15:15;;;;;;;46.08;12.07;;;;;;;0.01;0.00;59042.03;5039785;28;20032;-55
2022/12/10 02:17:49;;;;;;;50.67;13.30;;;;;;;0.01;0.00;59042.03;5038895;28;20052;-56
2022/12/10 02:20:40;;;;;;;37.70;10.48;;;;;;;0.01;0.00;59042.03;5039097;28;20031;-56
2022/12/10 02:23:11;;;;;;;42.03;11.93;;;;;;;0.01;0.00;59042.03;5039502;28;20028;-57
2022/12/10 02:25:52;;;;;;;44.35;12.75;;;;;;;0.01;0.00;59042.03;5038831;28;20025;-54
2022/12/10 02:28:25;;;;;;;45.08;12.60;;;;;;;0.01;0.00;59042.03;5039228;28;20024;-55
2022/12/10 02:30:53;;;;;;;46.40;12.02;;;;;;;0.01;0.00;59042.03;5038403;28;20055;-56
2022/12/10 02:33:22;;;;;;;44.55;11.98;;;;;;;0.01;0.00;59042.03;5039425;28;20033;-55
2022/12/10 02:35:50;;;;;;;41.42;11.88;;;;;;;0.01;0.00;59042.03;5039171;28;20508;-55
2022/12/10 02:38:23;;;;;;;34.17;11.25;;;;;;;0.01;0.00;59042.03;5039062;28;20021;-56
2022/12/10 02:40:54;;;;;;;46.38;12.27;;;;;;;0.01;0.00;59042.03;5038564;28;20486;-54
2022/12/10 02:43:23;;;;;;;43.92;12.85;;;;;;;0.01;0.00;59042.03;5020864;28;20029;-57
2022/12/10 02:45:50;;;;;;;44.60;12.93;;;;;;;0.01;0.00;59042.03;5039055;28;20033;-54
2022/12/10 02:48:16;;;;;;;50.78;13.43;;;;;;;0.01;0.00;59042.03;5020176;28;20543;-54
2022/12/10 02:50:41;;;;;;;48.63;12.95;;;;;;;0.01;0.00;59042.03;5038448;28;20037;-54
2022/12/10 02:53:06;;;;;;;43.00;12.15;;;;;;;0.01;0.00;59042.03;5038715;28;20387;-54
2022/12/10 02:55:59;;;;;;;43.83;13.25;;;;;;;0.01;0.00;59042.03;5038620;28;20041;-55
2022/12/10 02:58:37;;;;;;;50.83;12.55;;;;;;;0.01;0.00;59042.03;4988132;28;20450;-54
2022/12/10 03:01:22;;;;;;;48.17;12.70;;;;;;;0.01;0.00;59042.03;5038037;28;20191;-55
2022/12/10 03:03:52;;;;;;;40.63;11.02;;;;;;;0.01;0.00;59042.03;5038879;28;20037;-56
2022/12/10 03:06:30;;;;;;;43.00;12.02;;;;;;;0.01;0.00;59042.03;5037878;28;20037;-55
2022/12/10 03:09:00;;;;;;;47.92;12.43;;;;;;;0.01;0.00;59042.03;5038531;28;20063;-55
2022/12/10 03:11:27;;;;;;;53.13;13.30;;;;;;;0.01;0.00;59042.03;5019874;28;20086;-57
2022/12/10 03:14:00;;;;;;;51.42;12.55;;;;;;;0.01;0.00;59042.03;5038658;28;20036;-54
2022/12/10 03:16:31;;;;;;;47.30;12.52;;;;;;;0.01;0.00;59042.03;5037781;28;20041;-57
2022/12/10 03:19:00;;;;;;;41.88;12.23;;;;;;;0.01;0.00;59042.03;5037172;28;20554;-55
2022/12/10 03:21:29;;;;;;;37.40;10.50;;;;;;;0.01;0.00;59042.03;5036805;28;20041;-54
2022/12/10 03:23:54;;;;;;;38.42;12.27;;;;;;;0.01;0.00;59042.03;5038629;28;20108;-56
2022/12/10 03:26:21;;;;;;;41.72;11.68;;;;;;;0.01;0.00;59042.03;5038164;28;20043;-55
2022/12/10 03:28:51;;;;;;;46.58;13.27;;;;;;;0.01;0.00;59042.03;5037526;28;20032;-55
2022/12/10 03:31:18;;;;;;;35.60;10.07;;;;;;;0.01;0.00;59042.03;5038068;28;20402;-55
2022/12/10 03:33:46;;;;;;;44.25;10.30;;;;;;;0.01;0.00;59042.03;5020933;28;20045;-56
2022/12/10 03:36:12;;;;;;;52.58;13.20;;;;;;;0.01;0.00;59042.03;5038273;28;20041;-55
2022/12/10 03:38:38;;;;;;;41.28;11.70;;;;;;;0.01;0.00;59042.03;5038192;28;20473;-57
2022/12/10 03:41:04;;;;;;;43.97;13.30;;;;;;;0.01;0.00;59042.03;5037759;28;20041;-55
2022/12/10 03:43:29;;;;;;;38.17;11.65;;;;;;;0.01;0.00;59042.03;5038557;28;20032;-56
2022/12/10 03:45:55;;;;;;;50.35;13.75;;;;;;;0.01;0.00;59042.03;5037438;28;20037;-55
2022/12/10 03:48:20;;;;;;;39.65;11.57;;;;;;;0.01;0.00;59042.03;5038697;28;20017;-55
2022/12/10 03:50:45;;;;;;;45.95;13.38;;;;;;;0.01;0.00;59042.03;5037152;28;20037;-56
2022/12/10 03:53:11;;;;;;;38.05;11.15;;;;;;;0.01;0.00;59042.03;5038300;28;20490;-56
2022/12/10 03:55:36;;;;;;;43.05;12.45;;;;;;;0.01;0.00;59042.03;5037718;28;20506;-55
2022/12/10 03:58:01;;;;;;;49.85;13.02;;;;;;;0.01;0.00;59042.03;5038027;28;20033;-55
2022/12/10 04:00:27;;;;;;;38.80;11.55;;;;;;;0.01;0.00;59042.03;5037578;28;20041;-55
2022/12/10 04:02:52;;;;;;;45.13;12.25;;;;;;;0.01;0.00;59042.03;5037715;28;20036;-54
2022/12/10 04:05:18;;;;;;;38.40;10.63;;;;;;;0.01;0.00;59042.03;5037886;28;20029;-55
2022/12/10 04:07:43;;;;;;;41.13;12.45;;;;;;;0.01;0.00;59042.03;5020139;28;20634;-55
2022/12/10 04:10:09;;;;;;;53.83;13.82;;;;;;;0.01;0.00;59042.03;5037223;28;20028;-56
2022/12/10 04:12:34;;;;;;;47.80;12.50;;;;;;;0.01;0.00;59042.03;5037977;28;20033;-54
2022/12/10 04:17:43;;;;;;;39.40;12.75;;;;;;;0.01;0.00;59042.03;5038224;28;20047;-56
2022/12/10 04:28:38;;;;;;;37.08;11.55;;;;;;;0.01;0.00;59042.03;5034092;28;20106;-55
2022/12/10 04:31:03;;;;;;;46.30;12.40;;;;;;;0.01;0.00;59042.03;5037068;28;20037;-56
2022/12/10 04:33:29;;;;;;;41.13;11.82;;;;;;;0.01;0.00;59042.03;5037394;28;20033;-56
2022/12/10 04:35:54;;;;;;;57.22;13.05;;;;;;;0.01;0.00;59042.03;5035850;28;20121;-54
2022/12/10 04:38:19;;;;;;;46.25;12.25;;;;;;;0.01;0.00;59042.03;5035792;28;20053;-57
2022/12/10 04:40:45;;;;;;;47.00;12.13;;;;;;;0.01;0.00;59042.03;5039614;28;20515;-55
2022/12/10 04:43:10;;;;;;;42.00;12.20;;;;;;;0.01;0.00;59042.03;5041797;28;20145;-54
2022/12/10 04:45:35;;;;;;;52.17;13.20;;;;;;;0.01;0.00;59042.03;5041198;28;20598;-54
2022/12/10 04:48:01;;;;;;;44.17;12.38;;;;;;;0.01;0.00;59042.03;5040514;28;20647;-55
2022/12/10 04:50:26;;;;;;;49.17;13.20;;;;;;;0.01;0.00;59042.03;5041291;28;20092;-55
2022/12/10 04:52:52;;;;;;;41.85;12.40;;;;;;;0.01;0.00;59042.03;5041458;28;20021;-56
2022/12/10 04:55:17;;;;;;;45.45;12.73;;;;;;;0.01;0.00;59042.03;5041278;28;20037;-55
2022/12/10 04:57:42;;;;;;;43.22;12.75;;;;;;;0.01;0.00;59042.03;5041985;28;20032;-55
2022/12/10 05:00:08;;;;;;;39.42;12.77;;;;;;;0.01;0.00;59042.03;5041271;28;20021;-57
2022/12/10 05:02:34;;;;;;;46.92;13.63;;;;;;;0.01;0.00;59042.03;5040891;28;20600;-56
2022/12/10 05:04:59;;;;;;;37.40;11.25;;;;;;;0.01;0.00;59042.03;5023724;28;20430;-56
2022/12/10 05:07:24;;;;;;;38.55;11.98;;;;;;;0.01;0.00;59042.03;5040931;28;20048;-56
2022/12/10 05:09:50;;;;;;;46.17;11.02;;;;;;;0.01;0.00;59042.03;5041614;28;20025;-57
2022/12/10 05:12:15;;;;;;;35.35;11.30;;;;;;;0.01;0.00;59042.03;5040350;28;20765;-57
2022/12/10 05:14:40;;;;;;;40.10;10.23;;;;;;;0.01;0.00;59042.03;5040884;28;20618;-54
2022/12/10 05:17:06;;;;;;;48.28;13.50;;;;;;;0.01;0.00;59042.03;5040548;28;20037;-56
2022/12/10 05:19:31;;;;;;;42.20;11.90;;;;;;;0.01;0.00;59042.03;5041246;28;20037;-55
2022/12/10 05:24:40;;;;;;;42.78;11.43;;;;;;;0.01;0.00;59042.03;5041509;28;20044;-55
2022/12/10 05:27:06;;;;;;;41.80;11.90;;;;;;;0.01;0.00;59042.03;5040197;28;20169;-56
2022/12/10 05:29:32;;;;;;;43.63;11.55;;;;;;;0.01;0.00;59042.03;5041395;28;20035;-55
2022/12/10 05:31:57;;;;;;;38.70;10.95;;;;;;;0.01;0.00;59042.03;5039978;28;20565;-54
2022/12/10 05:34:23;;;;;;;41.42;11.88;;;;;;;0.01;0.00;59042.03;5040255;28;20501;-54
2022/12/10 05:36:48;;;;;;;44.03;12.25;;;;;;;0.01;0.00;59042.03;5040552;28;20086;-54
2022/12/10 05:39:13;;;;;;;43.42;11.65;;;;;;;0.01;0.00;59042.03;5040486;28;20642;-56
2022/12/10 05:41:40;;;;;;;45.30;13.30;;;;;;;0.01;0.00;59042.03;5039914;28;20128;-54
2022/12/10 05:44:07;;;;;;;51.85;13.05;;;;;;;0.01;0.00;59042.03;5040523;28;20112;-55
2022/12/10 05:46:34;;;;;;;47.92;12.82;;;;;;;0.01;0.00;59042.03;5039922;28;20044;-57
2022/12/10 05:49:02;;;;;;;43.17;13.02;;;;;;;0.01;0.00;59042.03;5040315;28;20491;-56
2022/12/10 05:51:30;;;;;;;38.83;11.82;;;;;;;0.01;0.00;59042.03;5038262;28;20541;-55
2022/12/10 05:53:57;;;;;;;45.95;12.95;;;;;;;0.01;0.00;59042.03;5040469;28;20159;-55
2022/12/10 05:56:24;;;;;;;45.28;11.60;;;;;;;0.01;0.00;59042.03;5040053;28;20033;-55
2022/12/10 05:58:53;;;;;;;39.95;12.07;;;;;;;0.01;0.00;59042.03;5041069;28;20025;-58
2022/12/10 06:01:21;;;;;;;43.15;12.35;;;;;;;0.01;0.00;59042.03;5039447;28;20048;-55
2022/12/10 06:03:46;;;;;;;47.42;11.90;;;;;;;0.01;0.00;59042.03;5040249;28;20271;-56
2022/12/10 06:06:13;;;;;;;44.63;12.77;;;;;;;0.01;0.00;59042.03;5021881;28;20041;-56
2022/12/10 06:08:39;;;;;;;44.05;12.55;;;;;;;0.01;0.00;59042.03;5040340;28;20124;-58
2022/12/10 06:11:07;;;;;;;40.33;12.10;;;;;;;0.01;0.00;59042.03;5039633;28;20621;-56
2022/12/10 06:13:32;;;;;;;48.03;13.50;;;;;;;0.01;0.00;59042.03;5040064;28;20029;-55
2022/12/10 06:15:58;;;;;;;46.20;12.35;;;;;;;0.01;0.00;59042.03;5039323;28;20222;-55
2022/12/10 06:18:23;;;;;;;39.95;12.13;;;;;;;0.01;0.00;59042.03;5039867;28;20032;-55
2022/12/10 06:20:49;;;;;;;42.33;12.07;;;;;;;0.01;0.00;59042.03;5039453;28;20818;-55
2022/12/10 06:23:15;;;;;;;49.20;13.48;;;;;;;0.01;0.00;59042.03;5040233;28;20021;-54
2022/12/10 06:25:40;;;;;;;47.97;12.23;;;;;;;0.01;0.00;59042.03;5039423;28;20045;-55
2022/12/10 06:28:06;;;;;;;41.22;12.05;;;;;;;0.01;0.00;59042.03;5040160;28;20027;-57
2022/12/10 06:30:33;;;;;;;47.25;12.98;;;;;;;0.01;0.00;59042.03;5039399;28;20045;-55
2022/12/10 06:32:59;;;;;;;42.28;13.02;;;;;;;0.01;0.00;59042.03;5039460;28;20033;-55
2022/12/10 06:35:24;;;;;;;43.58;12.73;;;;;;;0.01;0.00;59042.03;5022094;28;20671;-54
2022/12/10 06:37:50;;;;;;;44.42;12.00;;;;;;;0.01;0.00;59042.03;5040020;28;20115;-55
2022/12/10 06:40:16;;;;;;;42.38;12.90;;;;;;;0.01;0.00;59042.03;5039406;28;20443;-57
2022/12/10 06:42:42;;;;;;;48.78;13.63;;;;;;;0.01;0.00;59042.03;5038785;28;20041;-54
2022/12/10 06:45:08;;;;;;;42.47;12.13;;;;;;;0.01;0.00;59042.03;5038935;28;20035;-55
2022/12/10 06:47:33;;;;;;;37.13;11.77;;;;;;;0.01;0.00;59042.03;5039314;28;20037;-54
2022/12/10 06:49:59;;;;;;;44.95;12.70;;;;;;;0.01;0.00;59042.03;5039274;28;20025;-57
2022/12/10 06:52:24;;;;;;;41.03;12.90;;;;;;;0.01;0.00;59042.03;5038855;28;20495;-56
2022/12/10 06:54:50;;;;;;;38.90;13.63;;;;;;;0.01;0.00;59042.03;5039586;28;20134;-54
2022/12/10 06:57:15;;;;;;;45.58;13.23;;;;;;;0.01;0.00;59042.03;5039011;28;20114;-54
2022/12/10 06:59:41;;;;;;;43.10;12.48;;;;;;;0.01;0.00;59042.03;5039626;28;20044;-56
2022/12/10 07:02:08;;;;;;;38.70;11.65;;;;;;;0.01;0.00;59042.03;5038133;28;20037;-55
2022/12/10 07:04:34;;;;;;;42.42;12.80;;;;;;;0.01;0.00;59042.03;5039142;28;20149;-55
2022/12/10 07:06:59;;;;;;;40.83;11.95;;;;;;;0.01;0.00;59042.03;5038974;28;20421;-55
2022/12/10 07:09:24;;;;;;;34.40;11.15;;;;;;;0.01;0.00;59042.03;5038992;28;20083;-55
2022/12/10 07:11:50;;;;;;;40.08;10.38;;;;;;;0.01;0.00;59042.03;5020297;28;20060;-55
2022/12/10 07:14:16;;;;;;;48.53;12.50;;;;;;;0.01;0.00;59042.03;5038880;28;20117;-57
2022/12/10 07:16:42;;;;;;;35.47;10.82;;;;;;;0.01;0.00;59042.03;5038294;28;20041;-57
2022/12/10 07:19:11;;;;;;;42.67;11.55;;;;;;;0.01;0.00;59042.03;5038496;28;20021;-57
2022/12/10 07:21:38;;;;;;;34.25;10.35;;;;;;;0.01;0.00;59042.03;5038231;28;20446;-55
2022/12/10 07:24:13;;;;;;;37.15;11.07;;;;;;;0.01;0.00;59042.03;5039175;28;20056;-55
2022/12/10 07:26:41;;;;;;;36.47;10.85;;;;;;;0.01;0.00;59042.03;5038548;28;20080;-56
2022/12/10 07:29:09;;;;;;;34.70;11.57;;;;;;;0.01;0.00;59042.03;5038947;28;20108;-57
2022/12/10 07:31:36;;;;;;;38.13;12.00;;;;;;;0.01;0.00;59042.03;5037542;28;20037;-57
2022/12/10 07:34:01;;;;;;;45.38;13.45;;;;;;;0.01;0.00;59042.03;5038346;28;20630;-57
2022/12/10 07:36:27;;;;;;;46.67;13.13;;;;;;;0.01;0.00;59042.03;5038137;28;20115;-55
2022/12/10 07:38:54;;;;;;;46.35;13.02;;;;;;;0.01;0.00;59042.03;5038740;28;20033;-55
2022/12/10 07:41:21;;;;;;;39.22;11.85;;;;;;;0.01;0.00;59042.03;5037912;28;20206;-56
2022/12/10 07:43:47;;;;;;;40.20;11.50;;;;;;;0.01;0.00;59042.03;5037976;28;20028;-56
2022/12/10 07:46:17;;;;;;;41.22;12.55;;;;;;;0.01;0.00;59042.03;5037692;28;20045;-56
2022/12/10 07:48:44;;;;;;;53.25;13.00;;;;;;;0.01;0.00;59042.03;5038227;28;20024;-54
2022/12/10 07:51:10;;;;;;;47.80;12.25;;;;;;;0.01;0.00;59042.03;5037225;28;20041;-56
2022/12/10 07:53:35;;;;;;;44.60;12.93;;;;;;;0.01;0.00;59042.03;5037715;28;20122;-54
2022/12/10 07:56:02;;;;;;;39.70;11.05;;;;;;;0.01;0.00;59042.03;5037455;28;20116;-54
2022/12/10 07:58:27;;;;;;;46.83;12.70;;;;;;;0.01;0.00;59042.03;5038225;28;20087;-56
2022/12/10 08:00:53;;;;;;;54.15;14.25;;;;;;;0.01;0.00;59042.03;5037330;28;20419;-56
2022/12/10 08:03:18;;;;;;;46.83;13.15;;;;;;;0.01;0.00;59042.03;5033304;28;20111;-54
2022/12/10 08:05:44;;;;;;;59.38;14.75;;;;;;;0.01;0.00;59042.03;5039263;28;20441;-56
2022/12/10 08:08:09;;;;;;;45.55;14.20;;;;;;;0.01;0.00;59042.03;5040274;28;20047;-55
2022/12/10 08:10:35;;;;;;;41.72;12.60;;;;;;;0.01;0.00;59042.03;5039179;28;20074;-55
2022/12/10 08:13:01;;;;;;;42.65;12.02;;;;;;;0.01;0.00;59042.03;5039392;28;20483;-55
2022/12/10 08:15:28;;;;;;;38.10;11.43;;;;;;;0.01;0.00;59042.03;5039319;28;20094;-55
2022/12/10 08:17:53;;;;;;;40.28;11.38;;;;;;;0.01;0.00;59042.03;5039800;28;20039;-57
2022/12/10 08:20:19;;;;;;;39.67;12.38;;;;;;;0.01;0.00;59042.03;5039753;28;20033;-55
2022/12/10 08:22:44;;;;;;;38.75;12.73;;;;;;;0.01;0.00;59042.03;5039974;28;20044;-56
2022/12/10 08:25:10;;;;;;;42.33;11.65;;;;;;;0.01;0.00;59042.03;5039583;28;20893;-56
2022/12/10 08:27:35;;;;;;;50.00;11.85;;;;;;;0.01;0.00;59042.03;5037906;28;20029;-56
2022/12/10 08:30:00;;;;;;;35.15;10.75;;;;;;;0.01;0.00;59042.03;5017580;28;20025;-56
2022/12/10 08:32:26;;;;;;;42.50;12.57;;;;;;;0.01;0.00;59042.03;5038219;28;20428;-58
2022/12/10 08:34:51;;;;;;;46.80;13.95;;;;;;;0.01;0.00;59042.03;5039839;28;20100;-55
2022/12/10 08:37:17;;;;;;;37.47;10.70;;;;;;;0.01;0.00;59042.03;5039431;28;20450;-55
2022/12/10 08:39:42;;;;;;;37.20;12.18;;;;;;;0.01;0.00;59042.03;5039383;28;20032;-56
2022/12/10 08:42:08;;;;;;;35.20;9.30;;;;;;;0.01;0.00;59042.03;5038917;28;20077;-58
2022/12/10 08:44:33;;;;;;;33.35;11.68;;;;;;;0.01;0.00;59042.03;5039595;28;20040;-57
2022/12/10 08:46:58;;;;;;;37.65;11.63;;;;;;;0.01;0.00;59042.03;5038658;28;20071;-55
2022/12/10 08:49:24;;;;;;;39.75;11.45;;;;;;;0.01;0.00;59042.03;5037716;28;20084;-56
2022/12/10 08:51:49;;;;;;;41.17;12.50;;;;;;;0.01;0.00;59042.03;5034596;28;20049;-57
2022/12/10 08:54:14;;;;;;;34.10;11.65;;;;;;;0.01;0.00;59042.03;5036074;28;20554;-55
2022/12/10 08:56:40;;;;;;;35.78;11.80;;;;;;;0.01;0.00;59042.03;5036272;28;20033;-57
2022/12/10 08:59:06;;;;;;;40.80;12.95;;;;;;;0.01;0.00;59042.03;5038412;28;20033;-57
2022/12/10 09:01:32;;;;;;;42.75;12.57;;;;;;;0.01;0.00;59042.03;5036152;28;20048;-56
2022/12/10 09:03:57;;;;;;;37.50;12.40;;;;;;;0.01;0.00;59042.03;5035226;28;20082;-57
2022/12/10 09:06:26;;;;;;;40.55;14.25;;;;;;;0.01;0.00;59042.03;5038905;28;20037;-57
2022/12/10 09:08:52;;;;;;;35.88;11.15;;;;;;;0.01;0.00;59042.03;5039489;28;20025;-59
2022/12/10 09:11:25;;;;;;;35.20;12.15;;;;;;;0.01;0.00;59042.03;5038535;28;20036;-55
2022/12/10 09:13:51;;;;;;;34.83;11.90;;;;;;;0.01;0.00;59042.03;5039265;28;20053;-57
2022/12/10 09:16:17;;;;;;;36.20;11.98;;;;;;;0.01;0.00;59042.03;5037975;28;20164;-59
2022/12/10 09:18:42;;;;;;;47.20;13.65;;;;;;;0.01;0.00;59042.03;5037829;28;20383;-59
2022/12/10 09:21:10;;;;;;;35.75;11.07;;;;;;;0.01;0.00;59042.03;5017233;28;20159;-59
2022/12/10 09:23:35;;;;;;;35.45;12.77;;;;;;;0.01;0.00;59042.03;5036589;28;20039;-57
2022/12/10 09:26:07;;;;;;;35.63;11.65;;;;;;;0.01;0.00;59042.03;5039932;28;20095;-55
2022/12/10 09:28:32;;;;;;;32.47;11.35;;;;;;;0.01;0.00;59042.03;5043013;28;20119;-55
2022/12/10 09:30:59;;;;;;;40.58;13.73;;;;;;;0.01;0.00;59042.03;5041528;28;20116;-57
2022/12/10 09:33:26;;;;;;;38.13;12.38;;;;;;;0.01;0.00;59042.03;5042881;28;20033;-55
2022/12/10 09:35:51;;;;;;;43.38;13.85;;;;;;;0.01;0.00;59042.03;5041545;28;20037;-55
2022/12/10 09:38:16;;;;;;;36.13;11.45;;;;;;;0.01;0.00;59042.03;5042585;28;20851;-56
2022/12/10 09:40:52;;;;;;;45.40;13.43;;;;;;;0.01;0.00;59042.03;5041749;28;20060;-55
2022/12/10 09:43:39;;;;;;;41.38;13.75;;;;;;;0.01;0.00;59042.03;5040736;28;20087;-56
2022/12/10 09:46:21;;;;;;;41.10;11.32;;;;;;;0.01;0.00;59042.03;5041018;28;20045;-56
2022/12/10 09:49:13;;;;;;;38.80;13.63;;;;;;;0.01;0.00;59042.03;5042595;28;20790;-55
2022/12/10 09:51:38;;;;;;;37.45;13.48;;;;;;;0.01;0.00;59042.03;5038346;28;20537;-56
2022/12/10 09:54:26;;;;;;;38.90;12.93;;;;;;;0.01;0.00;59042.03;5022907;28;20032;-54
2022/12/10 09:56:54;;;;;;;33.78;11.48;;;;;;;0.01;0.00;59042.03;5041539;28;20963;-55
2022/12/10 09:59:38;;;;;;;40.78;13.05;;;;;;;0.01;0.00;59042.03;5039944;28;20089;-55
2022/12/10 10:02:18;;;;;;;37.65;12.02;;;;;;;0.01;0.00;59042.03;5039251;28;20052;-55
2022/12/10 10:04:44;;;;;;;46.13;13.77;;;;;;;0.01;0.00;59042.03;5041810;28;20096;-57
2022/12/10 10:07:31;;;;;;;40.42;12.98;;;;;;;0.01;0.00;59042.03;5041219;28;20037;-58
2022/12/10 10:10:01;;;;;;;43.60;13.93;;;;;;;0.01;0.00;59042.03;5040293;28;20032;-58
2022/12/10 10:12:28;;;;;;;37.88;12.90;;;;;;;0.01;0.00;59042.03;5038690;28;20063;-56
2022/12/10 10:14:53;;;;;;;35.55;11.27;;;;;;;0.01;0.00;59042.03;5041502;28;20090;-56
2022/12/10 10:17:28;;;;;;;36.40;12.02;;;;;;;0.01;0.00;59042.03;5041147;28;20033;-54
2022/12/10 10:19:53;;;;;;;40.05;14.70;;;;;;;0.01;0.00;59042.03;5041846;28;20027;-54
2022/12/10 10:22:18;;;;;;;40.20;13.95;;;;;;;0.01;0.00;59042.03;5040526;28;20032;-58
2022/12/10 10:24:45;;;;;;;36.25;12.13;;;;;;;0.01;0.00;59042.03;5042072;28;20795;-57
2022/12/10 10:27:21;;;;;;;38.03;13.13;;;;;;;0.01;0.00;59042.03;5041126;28;20037;-58
2022/12/10 10:29:49;;;;;;;43.92;13.15;;;;;;;0.01;0.00;59042.03;5041713;28;20581;-56
2022/12/10 10:32:17;;;;;;;40.15;12.80;;;;;;;0.01;0.00;59042.03;5039752;28;20578;-56
2022/12/10 10:34:44;;;;;;;39.38;13.20;;;;;;;0.01;0.00;59042.03;5041602;28;20025;-55
2022/12/10 10:37:21;;;;;;;35.13;12.07;;;;;;;0.01;0.00;59042.03;5040396;28;20037;-55
2022/12/10 10:39:49;;;;;;;51.97;14.65;;;;;;;0.01;0.00;59042.03;5040044;28;20032;-54
2022/12/10 10:42:27;;;;;;;36.60;13.38;;;;;;;0.01;0.00;59042.03;5037296;28;20059;-58
2022/12/10 10:44:52;;;;;;;34.40;12.35;;;;;;;0.01;0.00;59042.03;5040296;28;20064;-57
2022/12/10 10:47:34;;;;;;;40.92;13.65;;;;;;;0.01;0.00;59042.03;5040427;28;20060;-59
2022/12/10 10:50:01;;;;;;;42.67;15.18;;;;;;;0.01;0.00;59042.03;5041529;28;20040;-55
2022/12/10 10:52:35;;;;;;;39.35;13.23;;;;;;;0.01;0.00;59042.03;5040101;28;20072;-55
2022/12/10 10:55:00;;;;;;;39.40;13.60;;;;;;;0.01;0.00;59042.03;5041443;28;20094;-55
2022/12/10 10:57:33;;;;;;;38.45;13.63;;;;;;;0.01;0.00;59042.03;5040695;28;20044;-55
2022/12/10 11:00:19;;;;;;;32.80;11.73;;;;;;;0.01;0.00;59042.03;5040707;28;20630;-56
2022/12/10 11:02:45;;;;;;;33.88;11.70;;;;;;;0.01;0.00;59042.03;5040221;28;20048;-57
2022/12/10 11:05:28;;;;;;;36.78;13.20;;;;;;;0.01;0.00;59042.03;5040899;28;20029;-56
2022/12/10 11:08:03;;;;;;;40.05;13.43;;;;;;;0.01;0.00;59042.03;5040501;28;20036;-55
2022/12/10 11:10:29;;;;;;;39.13;11.48;;;;;;;0.01;0.00;59042.03;5038934;28;20036;-55
2022/12/10 11:13:06;;;;;;;35.85;12.63;;;;;;;0.01;0.00;59042.03;5035844;28;20846;-59
2022/12/10 11:15:41;;;;;;;28.80;8.70;;;;;;;0.01;0.00;59042.03;5038603;28;20048;-61
2022/12/10 11:18:30;;;;;;;41.20;13.75;;;;;;;0.01;0.00;59042.03;5040307;28;20417;-59
2022/12/10 11:21:21;;;;;;;40.92;12.48;;;;;;;0.01;0.00;59042.03;5037646;28;20037;-60
2022/12/10 11:23:49;;;;;;;38.40;13.80;;;;;;;0.01;0.00;59042.03;5037566;28;20855;-63
2022/12/10 11:26:38;;;;;;;43.42;13.73;;;;;;;0.01;0.00;59042.03;5040003;28;20039;-61
2022/12/10 11:29:19;;;;;;;32.67;12.50;;;;;;;0.01;0.00;59042.03;5040925;28;20048;-60
2022/12/10 11:31:56;;;;;;;39.28;13.02;;;;;;;0.01;0.00;59042.03;5036490;28;20049;-60
2022/12/10 11:34:42;;;;;;;38.78;13.10;;;;;;;0.01;0.00;59042.03;5039298;28;20525;-62
2022/12/10 11:37:42;;;;;;;31.17;12.18;;;;;;;0.01;0.00;59042.03;5039654;28;20517;-60
2022/12/10 11:40:33;;;;;;;26.95;9.35;;;;;;;0.01;0.00;59042.03;5039668;28;20037;-62
2022/12/10 11:43:18;;;;;;;29.55;10.13;;;;;;;0.01;0.00;59042.03;5040044;28;20029;-61
2022/12/10 11:45:59;;;;;;;35.55;12.75;;;;;;;0.01;0.00;59042.03;5039634;28;20036;-63
2022/12/10 11:48:43;;;;;;;39.15;12.95;;;;;;;0.01;0.00;59042.03;5039237;28;20742;-61
2022/12/10 11:51:36;;;;;;;31.77;10.98;;;;;;;0.01;0.00;59042.03;5037399;28;20041;-60
2022/12/10 11:54:29;;;;;;;34.60;12.55;;;;;;;0.01;0.00;59042.03;5036794;28;20029;-61
2022/12/10 11:57:08;;;;;;;34.58;11.77;;;;;;;0.01;0.00;59042.03;5038609;28;20779;-60